Time;durP1;ratioP1;P1;durP2;ratioP2;P2;SDS_P1;SDS_P2;PMS_P1;PMS_P2;Temp;Humidity;BMP_temperature;BMP_pressure;BME280_temperature;BME280_humidity;BME280_pressure;Samples;Min_cycle;Max_cycle;Signal;HPM_P1;HPM_P2
2022/04/21 00:00:21;;;;;;;4.93;3.15;;;9.60;56.10;;;;;;5040350;28;20093;-73
2022/04/21 00:02:47;;;;;;;4.30;3.90;;;9.60;56.30;;;;;;5041770;28;20075;-71
2022/04/21 00:05:13;;;;;;;4.30;3.20;;;9.50;56.40;;;;;;5024536;28;20469;-71
2022/04/21 00:07:39;;;;;;;4.57;3.10;;;9.50;56.50;;;;;;5026374;28;20029;-72
2022/04/21 00:10:05;;;;;;;5.50;3.17;;;9.40;56.60;;;;;;5028285;28;20030;-72
2022/04/21 00:12:30;;;;;;;4.22;3.38;;;9.40;56.70;;;;;;5052141;28;20037;-71
2022/04/21 00:14:56;;;;;;;3.75;3.28;;;9.40;56.80;;;;;;5025935;28;20613;-72
2022/04/21 00:17:22;;;;;;;6.15;3.40;;;9.40;56.90;;;;;;5022330;28;20037;-72
2022/04/21 00:19:47;;;;;;;8.25;4.00;;;9.30;57.00;;;;;;5040980;28;20025;-71
2022/04/21 00:24:57;;;;;;;7.22;3.50;;;9.20;57.30;;;;;;5019112;28;20090;-72
2022/04/21 00:27:23;;;;;;;7.63;3.70;;;9.10;57.40;;;;;;5012030;28;20037;-72
2022/04/21 00:29:48;;;;;;;4.80;3.60;;;9.00;57.60;;;;;;5032585;28;20039;-71
2022/04/21 00:32:14;;;;;;;4.18;3.05;;;9.00;57.80;;;;;;5043823;28;20028;-73
2022/04/21 00:34:39;;;;;;;4.35;3.53;;;9.00;57.90;;;;;;5055432;28;20036;-71
2022/04/21 00:37:05;;;;;;;3.97;3.67;;;9.00;58.00;;;;;;5032993;28;20803;-72
2022/04/21 00:39:34;;;;;;;4.40;3.28;;;9.00;58.10;;;;;;5062286;28;20044;-71
2022/04/21 00:42:00;;;;;;;4.03;3.63;;;9.00;58.10;;;;;;5062121;28;20108;-71
2022/04/21 00:44:26;;;;;;;4.65;3.30;;;8.90;58.20;;;;;;4995067;28;20059;-72
2022/04/21 00:46:53;;;;;;;4.47;3.85;;;8.90;58.20;;;;;;5027711;28;20120;-72
2022/04/21 00:49:19;;;;;;;4.22;3.53;;;8.90;58.30;;;;;;5060459;28;20041;-73
2022/04/21 00:51:45;;;;;;;7.45;3.83;;;8.80;58.30;;;;;;5035572;28;20420;-71
2022/04/21 00:54:10;;;;;;;7.20;4.22;;;8.70;58.50;;;;;;5024475;28;20036;-72
2022/04/21 00:56:36;;;;;;;3.78;3.25;;;8.60;58.50;;;;;;5046054;28;20757;-71
2022/04/21 00:59:03;;;;;;;5.95;4.13;;;8.70;58.60;;;;;;5042242;28;20047;-71
2022/04/21 01:11:52;;;;;;;4.07;3.67;;;8.30;59.40;;;;;;5023017;28;20071;-72
2022/04/21 01:14:19;;;;;;;10.27;3.60;;;8.30;59.40;;;;;;5009184;28;20116;-72
2022/04/21 01:16:45;;;;;;;4.85;3.75;;;8.20;59.20;;;;;;5033141;28;20031;-71
2022/04/21 01:19:11;;;;;;;5.25;3.85;;;8.20;59.30;;;;;;5056471;28;20673;-71
2022/04/21 01:21:36;;;;;;;8.45;3.90;;;8.20;59.50;;;;;;5029177;28;20028;-72
2022/04/21 01:24:04;;;;;;;4.63;3.95;;;8.20;59.60;;;;;;5062856;28;20025;-73
2022/04/21 01:26:35;;;;;;;5.05;3.53;;;8.20;59.70;;;;;;5064127;28;20033;-72
2022/04/21 01:29:05;;;;;;;5.63;3.92;;;8.10;59.80;;;;;;5046015;28;20044;-72
2022/04/21 01:31:30;;;;;;;3.95;3.53;;;8.10;60.00;;;;;;5060814;28;20037;-71
2022/04/21 01:33:56;;;;;;;5.75;4.32;;;8.10;60.00;;;;;;5060259;28;20108;-72
2022/04/21 01:36:21;;;;;;;6.65;4.07;;;8.10;60.10;;;;;;5030138;28;20460;-71
2022/04/21 01:41:31;;;;;;;5.40;3.67;;;8.00;60.40;;;;;;5032271;28;20043;-71
2022/04/21 01:43:56;;;;;;;5.50;4.00;;;7.90;60.30;;;;;;5026095;28;20033;-72
2022/04/21 01:46:22;;;;;;;4.07;3.67;;;7.90;61.30;;;;;;5010258;28;20032;-71
2022/04/21 01:48:47;;;;;;;4.00;3.38;;;7.90;60.60;;;;;;5048107;28;20104;-71
2022/04/21 01:51:13;;;;;;;4.95;3.38;;;7.90;60.70;;;;;;5011800;28;20056;-71
2022/04/21 01:53:38;;;;;;;6.90;3.58;;;7.90;61.70;;;;;;5027744;28;20037;-71
2022/04/21 01:56:04;;;;;;;5.43;4.38;;;7.90;60.90;;;;;;5048356;28;20108;-72
2022/04/21 01:58:30;;;;;;;6.68;4.00;;;7.90;61.00;;;;;;5046572;28;20037;-72
2022/04/21 02:00:56;;;;;;;4.72;4.07;;;7.80;61.10;;;;;;5045690;28;20043;-71
2022/04/21 02:03:21;;;;;;;5.05;3.85;;;7.80;61.20;;;;;;5014278;28;20525;-72
2022/04/21 02:05:47;;;;;;;5.05;3.80;;;7.80;61.40;;;;;;5061417;28;20071;-72
2022/04/21 02:08:12;;;;;;;6.55;3.03;;;7.80;61.50;;;;;;5027229;28;20108;-72
2022/04/21 02:10:38;;;;;;;4.25;3.78;;;7.80;61.60;;;;;;5026286;28;20020;-71
2022/04/21 02:13:04;;;;;;;4.63;3.80;;;7.80;61.60;;;;;;5062364;28;20039;-71
2022/04/21 02:15:30;;;;;;;3.55;3.25;;;7.80;61.70;;;;;;5057297;28;20029;-73
2022/04/21 02:17:56;;;;;;;4.05;3.67;;;7.80;61.70;;;;;;5021427;28;20504;-70
2022/04/21 02:20:21;;;;;;;9.88;3.95;;;7.80;61.90;;;;;;5060912;28;20028;-70
2022/04/21 02:22:47;;;;;;;4.72;3.83;;;7.80;61.90;;;;;;5056818;28;20039;-71
2022/04/21 02:25:14;;;;;;;4.50;4.10;;;7.70;62.00;;;;;;5040203;28;20027;-71
2022/04/21 02:27:41;;;;;;;5.68;4.03;;;7.70;62.10;;;;;;5010899;28;20389;-72
2022/04/21 02:30:07;;;;;;;7.35;4.03;;;7.70;62.20;;;;;;5046585;28;20025;-71
2022/04/21 02:32:33;;;;;;;5.65;4.13;;;7.60;62.20;;;;;;5061353;28;20025;-71
2022/04/21 02:34:59;;;;;;;4.38;3.90;;;7.60;62.30;;;;;;5011984;28;20131;-71
2022/04/21 02:37:25;;;;;;;6.82;4.10;;;7.60;62.40;;;;;;5014132;28;20103;-71
2022/04/21 02:39:50;;;;;;;5.85;3.90;;;7.60;62.40;;;;;;5043411;28;20028;-71
2022/04/21 02:42:16;;;;;;;6.32;4.20;;;7.60;62.50;;;;;;5012060;28;20021;-72
2022/04/21 02:44:42;;;;;;;6.03;4.00;;;7.60;62.60;;;;;;5043686;28;20062;-71
2022/04/21 02:47:08;;;;;;;4.20;3.80;;;7.50;62.60;;;;;;5028124;28;20439;-71
2022/04/21 02:49:35;;;;;;;5.78;4.25;;;7.50;62.80;;;;;;5059458;28;20843;-72
2022/04/21 02:52:07;;;;;;;5.25;4.65;;;7.50;63.00;;;;;;5028830;28;20021;-71
2022/04/21 02:57:22;;;;;;;7.30;4.38;;;7.40;63.20;;;;;;5030939;28;20036;-72
2022/04/21 02:59:48;;;;;;;;;;;7.40;63.20;;;;;;5028482;28;20637;-71
2022/04/21 03:02:13;;;;;;;6.45;4.40;;;7.40;62.90;;;;;;5044026;28;20421;-71
2022/04/21 03:04:39;;;;;;;5.90;4.35;;;7.40;62.90;;;;;;5031181;28;20073;-70
2022/04/21 03:07:04;;;;;;;5.80;3.97;;;7.40;63.10;;;;;;5044707;28;20099;-72
2022/04/21 03:09:32;;;;;;;4.85;4.30;;;7.40;63.30;;;;;;5043855;28;20513;-72
2022/04/21 03:12:03;;;;;;;5.63;3.83;;;7.50;63.40;;;;;;4989920;28;20028;-70
2022/04/21 03:14:29;;;;;;;5.40;3.85;;;7.50;63.80;;;;;;5026131;28;20025;-71
2022/04/21 03:16:55;;;;;;;4.60;3.80;;;7.50;63.60;;;;;;5040589;28;20074;-71
2022/04/21 03:19:21;;;;;;;4.22;3.60;;;7.50;63.70;;;;;;5048421;28;20727;-70
2022/04/21 03:24:31;;;;;;;4.38;3.28;;;7.50;63.70;;;;;;5039001;28;20067;-71
2022/04/21 03:26:57;;;;;;;5.53;3.90;;;7.50;63.70;;;;;;5023974;28;20032;-71
2022/04/21 03:29:22;;;;;;;6.43;4.20;;;7.50;63.80;;;;;;5031646;28;20493;-72
2022/04/21 03:31:48;;;;;;;7.03;4.65;;;7.50;63.90;;;;;;5018220;28;20497;-71
2022/04/21 03:34:15;;;;;;;5.72;4.60;;;7.60;64.00;;;;;;5025811;28;20041;-70
2022/04/21 03:36:49;;;;;;;4.82;4.00;;;7.50;64.00;;;;;;5023190;28;20121;-72
2022/04/21 03:39:16;;;;;;;5.72;3.78;;;7.50;64.20;;;;;;5021770;28;20044;-71
2022/04/21 03:41:41;;;;;;;5.18;4.05;;;7.50;64.20;;;;;;5008679;28;20107;-71
2022/04/21 03:44:07;;;;;;;6.93;4.15;;;7.50;64.20;;;;;;5034092;28;20029;-73
2022/04/21 03:46:33;;;;;;;6.28;3.90;;;7.50;64.30;;;;;;5028935;28;20497;-71
2022/04/21 03:48:59;;;;;;;4.45;3.92;;;7.50;64.20;;;;;;5027580;28;20067;-71
2022/04/21 03:51:25;;;;;;;5.13;4.43;;;7.60;64.30;;;;;;5030605;28;20063;-71
2022/04/21 03:53:51;;;;;;;9.18;4.75;;;7.60;64.30;;;;;;5026656;28;20124;-72
2022/04/21 03:56:17;;;;;;;5.47;4.25;;;7.60;64.40;;;;;;5030851;28;20128;-70
2022/04/21 03:58:42;;;;;;;7.22;4.20;;;7.60;64.50;;;;;;5010434;28;20064;-71
2022/04/21 04:01:08;;;;;;;5.72;4.25;;;7.60;64.60;;;;;;5016103;28;20112;-71
2022/04/21 04:03:34;;;;;;;5.60;3.88;;;7.60;64.60;;;;;;5001255;28;20069;-71
2022/04/21 04:05:59;;;;;;;5.78;4.40;;;7.50;64.70;;;;;;5029232;28;20114;-71
2022/04/21 04:11:10;;;;;;;9.43;4.13;;;7.50;64.80;;;;;;5050837;28;20044;-72
2022/04/21 04:13:35;;;;;;;5.75;4.50;;;7.50;65.00;;;;;;5026974;28;20056;-71
2022/04/21 04:16:01;;;;;;;7.60;4.32;;;7.50;64.90;;;;;;5024832;28;20401;-72
2022/04/21 04:18:28;;;;;;;6.13;4.00;;;7.50;65.00;;;;;;5035249;28;20544;-70
2022/04/21 04:20:54;;;;;;;4.63;3.92;;;7.50;65.00;;;;;;5028135;28;20044;-70
2022/04/21 04:23:20;;;;;;;4.85;3.83;;;7.50;65.10;;;;;;5031349;28;20025;-71
2022/04/21 04:25:46;;;;;;;7.15;4.10;;;7.60;65.20;;;;;;5016867;28;20021;-71
2022/04/21 04:28:11;;;;;;;6.32;4.10;;;7.50;65.20;;;;;;5029055;28;20025;-71
2022/04/21 04:30:40;;;;;;;5.07;4.28;;;7.60;65.30;;;;;;5050656;28;20520;-71
2022/04/21 04:33:06;;;;;;;5.70;3.70;;;7.60;65.40;;;;;;5025805;28;20064;-72
2022/04/21 04:35:31;;;;;;;4.63;3.88;;;7.60;65.40;;;;;;5006901;28;20049;-71
2022/04/21 04:37:58;;;;;;;4.93;4.30;;;7.60;65.40;;;;;;5010467;28;20028;-71
2022/04/21 04:40:23;;;;;;;5.97;4.80;;;7.60;65.50;;;;;;4994714;28;20493;-71
2022/04/21 04:42:49;;;;;;;5.22;4.22;;;7.60;65.50;;;;;;5018280;28;20052;-72
2022/04/21 04:47:58;;;;;;;5.05;3.53;;;7.60;65.60;;;;;;5039554;28;20106;-70
2022/04/21 04:50:24;;;;;;;6.40;4.15;;;7.60;65.60;;;;;;5012027;28;20026;-71
2022/04/21 04:52:55;;;;;;;4.85;4.03;;;7.60;65.70;;;;;;5016202;28;20086;-72
2022/04/21 04:55:20;;;;;;;6.85;4.57;;;7.70;65.80;;;;;;5022911;28;20037;-71
2022/04/21 04:57:46;;;;;;;4.88;4.00;;;7.70;65.80;;;;;;5025032;28;20067;-72
2022/04/21 05:00:12;;;;;;;4.97;4.05;;;7.70;65.80;;;;;;5036327;28;20060;-71
2022/04/21 05:02:37;;;;;;;5.78;4.43;;;7.80;65.90;;;;;;5061811;28;20036;-71
2022/04/21 05:05:03;;;;;;;6.65;4.28;;;7.80;66.00;;;;;;5024740;28;20064;-71
2022/04/21 05:07:29;;;;;;;4.80;3.92;;;7.80;66.00;;;;;;5047103;28;20067;-71
2022/04/21 05:09:54;;;;;;;4.88;3.88;;;7.80;66.00;;;;;;5030693;28;20441;-71
2022/04/21 05:12:21;;;;;;;4.63;3.88;;;7.90;66.10;;;;;;5025495;28;20485;-71
2022/04/21 05:14:48;;;;;;;6.18;3.78;;;7.90;66.00;;;;;;5026101;28;20029;-71
2022/04/21 05:17:14;;;;;;;6.72;4.10;;;7.90;65.80;;;;;;5033026;28;20054;-71
2022/04/21 05:19:40;;;;;;;5.95;3.65;;;7.90;65.90;;;;;;5025799;28;20087;-71
2022/04/21 05:22:06;;;;;;;8.00;3.92;;;8.00;66.00;;;;;;5025559;28;20036;-71
2022/04/21 05:24:32;;;;;;;3.60;3.30;;;8.00;65.90;;;;;;5034760;28;20161;-71
2022/04/21 05:26:58;;;;;;;5.40;4.18;;;8.00;66.00;;;;;;5025929;28;20036;-71
2022/04/21 05:32:08;;;;;;;5.07;3.75;;;8.10;66.20;;;;;;5034521;28;20095;-71
2022/04/21 05:34:34;;;;;;;5.20;3.83;;;8.10;66.20;;;;;;5020202;28;20049;-71
2022/04/21 05:37:01;;;;;;;7.97;4.20;;;8.10;66.10;;;;;;5022701;28;20034;-71
2022/04/21 05:39:29;;;;;;;7.47;4.85;;;8.20;66.10;;;;;;5030859;28;20085;-70
2022/04/21 05:41:57;;;;;;;5.47;4.10;;;8.20;66.10;;;;;;5019206;28;20072;-70
2022/04/21 05:44:23;;;;;;;6.13;4.50;;;8.20;66.20;;;;;;5043699;28;20037;-71
2022/04/21 05:46:49;;;;;;;9.63;5.25;;;8.30;66.20;;;;;;5042997;28;20045;-70
2022/04/21 05:49:15;;;;;;;8.73;5.00;;;8.30;66.20;;;;;;5042282;28;20094;-71
2022/04/21 05:51:42;;;;;;;10.18;5.68;;;8.40;66.40;;;;;;4986952;28;20049;-71
2022/04/21 05:54:08;;;;;;;7.57;3.95;;;8.40;66.40;;;;;;5025946;28;20102;-71
2022/04/21 05:56:34;;;;;;;6.72;5.03;;;8.40;66.30;;;;;;5041319;28;20037;-71
2022/04/21 05:58:59;;;;;;;10.32;4.38;;;8.50;66.20;;;;;;5029205;28;20394;-71
2022/04/21 06:01:25;;;;;;;8.13;5.22;;;8.50;66.30;;;;;;5030405;28;20033;-71
2022/04/21 06:03:52;;;;;;;10.95;5.03;;;8.50;66.30;;;;;;5040672;28;20041;-71
2022/04/21 06:06:17;;;;;;;12.32;5.38;;;8.60;66.40;;;;;;5042621;28;20047;-71
2022/04/21 06:08:43;;;;;;;7.18;4.97;;;8.60;66.40;;;;;;5057393;28;20822;-72
2022/04/21 06:11:09;;;;;;;6.75;4.78;;;8.60;66.40;;;;;;5022354;28;20041;-71
2022/04/21 06:13:36;;;;;;;8.00;4.97;;;8.60;66.40;;;;;;5058044;28;20540;-72
2022/04/21 06:16:01;;;;;;;11.55;5.00;;;8.60;66.40;;;;;;5021573;28;20554;-71
2022/04/21 06:18:27;;;;;;;8.02;3.90;;;8.70;66.50;;;;;;5059361;28;20029;-71
2022/04/21 06:20:53;;;;;;;4.03;3.58;;;8.70;66.60;;;;;;5023435;28;20394;-72
2022/04/21 06:23:19;;;;;;;6.10;4.13;;;8.80;66.50;;;;;;5032183;28;20037;-71
2022/04/21 06:25:44;;;;;;;4.72;3.35;;;8.80;66.30;;;;;;5026411;28;20029;-71
2022/04/21 06:28:10;;;;;;;5.35;3.67;;;8.90;66.40;;;;;;5023558;28;20037;-71
2022/04/21 06:30:36;;;;;;;7.90;4.85;;;9.00;66.30;;;;;;5012657;28;20116;-71
2022/04/21 06:33:02;;;;;;;4.70;4.05;;;9.00;66.30;;;;;;5024361;28;20044;-71
2022/04/21 06:35:28;;;;;;;6.18;3.75;;;9.10;66.30;;;;;;5015627;28;20045;-71
2022/04/21 06:37:54;;;;;;;4.32;3.50;;;9.20;66.30;;;;;;5046753;28;20070;-72
2022/04/21 06:40:19;;;;;;;6.63;3.78;;;9.20;66.20;;;;;;5029076;28;20037;-71
2022/04/21 06:42:46;;;;;;;6.60;4.00;;;9.30;66.10;;;;;;4996172;28;20059;-71
2022/04/21 06:48:02;;;;;;;9.32;4.68;;;9.40;66.00;;;;;;5054317;28;20548;-71
2022/04/21 06:50:37;;;;;;;8.57;3.83;;;9.50;65.90;;;;;;5041849;28;20064;-71
2022/04/21 06:53:04;;;;;;;7.63;4.65;;;9.60;66.10;;;;;;5027764;28;20135;-71
2022/04/21 06:55:30;;;;;;;8.02;4.60;;;9.70;65.90;;;;;;5035060;28;20052;-72
2022/04/21 06:57:55;;;;;;;10.18;4.05;;;9.80;65.80;;;;;;5060204;28;20043;-71
2022/04/21 07:00:22;;;;;;;5.55;3.72;;;9.90;65.70;;;;;;5026256;28;20053;-71
2022/04/21 07:02:50;;;;;;;8.98;4.88;;;10.00;65.50;;;;;;5041753;28;20536;-71
2022/04/21 07:05:16;;;;;;;8.18;4.13;;;10.20;65.40;;;;;;5009239;28;20033;-71
2022/04/21 07:07:42;;;;;;;9.82;4.72;;;10.40;65.30;;;;;;5014660;28;20109;-72
2022/04/21 07:10:08;;;;;;;7.78;3.97;;;10.60;65.20;;;;;;5056044;28;20436;-72
2022/04/21 07:12:34;;;;;;;6.03;4.47;;;10.80;65.00;;;;;;5043395;28;20041;-73
2022/04/21 07:15:06;;;;;;;8.27;3.92;;;10.90;64.80;;;;;;5042230;28;20032;-72
2022/04/21 07:17:32;;;;;;;8.82;3.97;;;11.10;64.60;;;;;;5020285;28;20051;-72
2022/04/21 07:19:59;;;;;;;8.73;4.40;;;11.30;64.30;;;;;;5047221;28;20120;-72
2022/04/21 07:22:25;;;;;;;9.65;4.13;;;11.50;64.00;;;;;;5029912;28;20037;-71
2022/04/21 07:24:53;;;;;;;7.82;3.90;;;11.70;63.80;;;;;;5039390;28;20083;-72
2022/04/21 07:27:19;;;;;;;9.75;3.92;;;11.90;63.40;;;;;;5020129;28;20037;-72
2022/04/21 07:29:45;;;;;;;5.05;3.40;;;12.00;63.00;;;;;;5029792;28;20037;-72
2022/04/21 07:32:13;;;;;;;4.80;3.20;;;12.10;62.70;;;;;;5010941;28;20033;-72
2022/04/21 07:34:38;;;;;;;8.07;3.38;;;12.20;62.40;;;;;;5031413;28;20055;-72
2022/04/21 07:37:04;;;;;;;6.00;3.45;;;12.30;62.20;;;;;;5027267;28;20056;-72
2022/04/21 07:39:30;;;;;;;6.60;3.25;;;12.30;61.90;;;;;;5028696;28;20033;-72
2022/04/21 07:41:59;;;;;;;5.13;3.13;;;12.40;61.80;;;;;;5046077;28;20037;-72
2022/04/21 07:44:26;;;;;;;6.30;4.15;;;12.50;61.60;;;;;;5011069;28;20033;-72
2022/04/21 07:46:52;;;;;;;5.28;3.35;;;12.50;61.40;;;;;;5025582;28;20032;-73
2022/04/21 07:54:47;;;;;;;4.53;2.65;;;12.60;60.60;;;;;;5031037;28;20242;-72
2022/04/21 07:57:12;;;;;;;5.65;3.38;;;12.70;60.50;;;;;;5030649;28;20603;-72
2022/04/21 07:59:38;;;;;;;5.70;2.92;;;12.80;60.30;;;;;;5027893;28;20125;-73
2022/04/21 08:02:04;;;;;;;4.93;3.72;;;12.80;60.10;;;;;;5034852;28;20099;-72
2022/04/21 08:04:30;;;;;;;8.57;3.65;;;12.90;60.00;;;;;;5031057;28;20061;-72
2022/04/21 08:06:57;;;;;;;4.70;3.33;;;12.90;59.80;;;;;;5042686;28;20068;-72
2022/04/21 08:09:23;;;;;;;4.55;2.97;;;13.00;59.60;;;;;;5045711;28;20814;-74
2022/04/21 08:11:48;;;;;;;3.22;2.78;;;13.10;59.50;;;;;;5043383;28;20041;-72
2022/04/21 08:14:16;;;;;;;3.92;3.35;;;13.20;59.30;;;;;;5012800;28;20041;-73
2022/04/21 08:16:44;;;;;;;4.15;2.97;;;13.40;59.20;;;;;;5033076;28;20056;-73
2022/04/21 08:19:10;;;;;;;3.63;3.00;;;13.60;59.00;;;;;;5012232;28;20037;-73
2022/04/21 08:21:37;;;;;;;4.05;3.22;;;13.80;58.80;;;;;;5028118;28;20025;-72
2022/04/21 08:32:34;;;;;;;4.40;3.08;;;14.60;57.90;;;;;;5027186;28;20044;-72
2022/04/21 08:35:01;;;;;;;5.95;3.03;;;14.90;57.60;;;;;;5045352;28;20127;-73
2022/04/21 08:37:27;;;;;;;3.47;2.55;;;15.10;57.10;;;;;;5045629;28;20039;-72
2022/04/21 08:39:53;;;;;;;3.78;2.72;;;15.20;56.80;;;;;;5029460;28;20169;-73
2022/04/21 08:42:19;;;;;;;7.78;3.33;;;15.30;56.40;;;;;;5041609;28;20049;-72
2022/04/21 08:44:44;;;;;;;3.83;2.67;;;15.50;56.00;;;;;;5047147;28;20037;-73
2022/04/21 08:47:11;;;;;;;4.45;2.90;;;15.50;55.70;;;;;;5056357;28;20509;-74
2022/04/21 08:49:36;;;;;;;4.13;2.30;;;15.50;55.50;;;;;;5028431;28;20037;-72
2022/04/21 08:52:02;;;;;;;5.93;2.85;;;15.50;55.40;;;;;;5028275;28;20040;-72
2022/04/21 08:54:28;;;;;;;3.20;2.80;;;15.50;55.30;;;;;;5019183;28;20536;-74
2022/04/21 08:56:54;;;;;;;4.80;2.67;;;15.50;55.10;;;;;;5010219;28;20071;-72
2022/04/21 08:59:22;;;;;;;3.95;3.28;;;15.50;54.90;;;;;;5043354;28;20064;-72
2022/04/21 09:01:47;;;;;;;4.95;2.88;;;15.50;54.80;;;;;;5015791;28;20093;-73
2022/04/21 09:04:13;;;;;;;3.38;2.70;;;15.60;54.50;;;;;;5030970;28;21796;-72
2022/04/21 09:06:38;;;;;;;4.38;2.90;;;15.60;54.30;;;;;;5041527;28;20040;-73
2022/04/21 09:09:22;;;;;;;5.05;3.10;;;15.60;54.80;;;;;;5013953;28;20362;-73
2022/04/21 09:11:54;;;;;;;4.28;3.33;;;15.70;53.70;;;;;;5013235;28;20405;-73
2022/04/21 09:14:20;;;;;;;;;;;15.70;53.70;;;;;;5013372;28;20033;-73
2022/04/21 09:16:46;;;;;;;7.53;3.50;;;15.90;54.00;;;;;;5053156;28;19919;-73
2022/04/21 09:19:12;;;;;;;4.60;3.85;;;16.00;53.90;;;;;;5044359;28;20117;-72
2022/04/21 09:21:38;;;;;;;6.47;3.75;;;16.10;53.70;;;;;;5060134;28;20037;-74
2022/04/21 09:24:23;;;;;;;7.53;3.88;;;16.30;53.50;;;;;;5032637;28;20492;-72
2022/04/21 09:26:49;;;;;;;5.57;3.90;;;16.50;52.80;;;;;;4990826;28;20044;-73
2022/04/21 09:29:25;;;;;;;3.60;3.30;;;16.70;52.90;;;;;;5047150;28;20413;-73
2022/04/21 09:32:03;;;;;;;5.63;3.83;;;16.90;52.50;;;;;;5024878;28;20037;-72
2022/04/21 09:34:29;;;;;;;3.75;3.33;;;17.10;52.50;;;;;;5054496;28;20082;-74
2022/04/21 09:36:57;;;;;;;4.68;3.33;;;17.30;52.50;;;;;;5043075;28;20466;-74
2022/04/21 09:39:23;;;;;;;3.78;3.33;;;17.50;52.00;;;;;;5015814;28;20030;-73
2022/04/21 09:41:53;;;;;;;5.72;2.90;;;17.70;51.80;;;;;;5021621;28;20042;-73
2022/04/21 09:47:05;;;;;;;3.80;2.95;;;18.00;51.20;;;;;;4999554;28;20088;-73
2022/04/21 09:49:43;;;;;;;5.97;3.42;;;18.20;50.90;;;;;;5016738;28;20124;-73
2022/04/21 09:52:09;;;;;;;4.22;2.67;;;18.40;50.30;;;;;;5022624;28;20040;-74
2022/04/21 09:54:34;;;;;;;4.90;4.10;;;18.50;50.20;;;;;;5028013;28;20038;-74
2022/04/21 09:57:00;;;;;;;4.25;3.63;;;18.60;50.00;;;;;;5024096;28;20029;-73
2022/04/21 09:59:26;;;;;;;5.32;4.03;;;18.60;49.90;;;;;;5027231;28;20030;-73
2022/04/21 10:01:51;;;;;;;7.97;4.47;;;18.70;49.70;;;;;;4999967;28;20042;-73
2022/04/21 10:04:20;;;;;;;4.05;3.28;;;18.80;49.60;;;;;;5008249;28;20096;-74
2022/04/21 10:06:46;;;;;;;5.07;3.53;;;18.80;49.30;;;;;;4987314;28;20040;-73
2022/04/21 10:09:12;;;;;;;6.82;5.00;;;18.90;49.20;;;;;;5010694;28;20059;-73
2022/04/21 10:11:38;;;;;;;5.40;2.92;;;19.10;49.10;;;;;;5038715;28;20044;-72
2022/04/21 10:14:05;;;;;;;4.75;3.97;;;19.20;49.00;;;;;;5006372;28;20037;-73
2022/04/21 10:16:31;;;;;;;7.53;3.42;;;19.40;48.70;;;;;;4992568;28;20524;-73
2022/04/21 10:18:58;;;;;;;3.70;3.30;;;19.60;48.60;;;;;;5042012;28;20052;-72
2022/04/21 10:21:30;;;;;;;5.32;3.10;;;19.70;48.30;;;;;;4996921;28;20060;-73
2022/04/21 10:23:56;;;;;;;4.30;3.33;;;19.80;47.90;;;;;;5010002;28;20643;-72
2022/04/21 10:26:38;;;;;;;4.28;3.00;;;19.80;47.70;;;;;;5011646;28;20108;-72
2022/04/21 10:29:13;;;;;;;4.22;2.97;;;19.80;47.60;;;;;;5008556;28;20662;-72
2022/04/21 10:31:46;;;;;;;3.33;3.00;;;19.80;47.20;;;;;;5009964;28;20429;-73
2022/04/21 10:34:29;;;;;;;3.97;3.10;;;19.80;47.10;;;;;;5024280;28;20613;-72
2022/04/21 10:37:12;;;;;;;4.80;2.92;;;19.80;46.80;;;;;;5021901;28;20028;-72
2022/04/21 10:39:39;;;;;;;3.17;2.88;;;19.90;47.10;;;;;;5048754;28;20662;-72
2022/04/21 10:42:10;;;;;;;4.40;2.80;;;20.10;47.00;;;;;;5050035;28;20064;-72
2022/04/21 10:44:45;;;;;;;4.40;2.63;;;20.20;46.70;;;;;;5050259;28;20036;-73
2022/04/21 10:47:30;;;;;;;3.13;2.40;;;20.30;46.40;;;;;;5044256;28;20502;-72
2022/04/21 10:49:59;;;;;;;4.28;2.50;;;20.40;46.10;;;;;;5057359;28;20040;-72
2022/04/21 10:58:34;;;;;;;4.32;2.78;;;20.60;45.90;;;;;;4940450;28;20088;-74
2022/04/21 11:01:11;;;;;;;;;;;20.60;45.40;;;;;;4952122;28;20491;-73
2022/04/21 11:03:37;;;;;;;2.92;2.10;;;20.60;45.60;;;;;;4961082;28;19922;-73
2022/04/21 11:06:16;;;;;;;3.83;2.53;;;20.70;45.70;;;;;;4946971;28;20061;-72
2022/04/21 11:08:44;;;;;;;5.85;3.22;;;20.60;45.10;;;;;;4934274;28;20027;-72
2022/04/21 11:11:09;;;;;;;4.50;3.10;;;20.70;45.20;;;;;;4935031;28;20030;-73
2022/04/21 11:14:02;;;;;;;2.97;2.50;;;20.80;45.20;;;;;;4948419;28;20030;-72
2022/04/21 11:16:40;;;;;;;5.10;3.50;;;20.90;44.90;;;;;;4970312;28;20042;-73
2022/04/21 11:19:31;;;;;;;3.92;2.75;;;21.20;44.40;;;;;;4980738;28;20837;-74
2022/04/21 11:21:57;;;;;;;4.50;2.58;;;21.20;44.00;;;;;;4963888;28;20070;-73
2022/04/21 11:24:23;;;;;;;4.97;2.67;;;21.30;44.40;;;;;;4927958;28;20034;-72
2022/04/21 11:26:55;;;;;;;2.65;2.40;;;21.40;44.20;;;;;;4948180;28;20039;-72
2022/04/21 11:29:20;;;;;;;2.63;2.10;;;21.40;43.70;;;;;;4965812;28;20133;-73
2022/04/21 11:31:46;;;;;;;2.78;2.40;;;21.50;43.70;;;;;;5029650;28;20140;-73
2022/04/21 11:34:11;;;;;;;4.15;2.25;;;21.60;43.60;;;;;;5046479;28;20132;-72
2022/04/21 11:36:38;;;;;;;3.45;2.13;;;21.60;43.40;;;;;;5058994;28;20417;-73
2022/04/21 11:39:07;;;;;;;3.33;2.38;;;21.60;43.30;;;;;;5043961;28;20028;-73
2022/04/21 11:41:33;;;;;;;4.35;2.15;;;21.70;43.10;;;;;;5001339;28;20064;-72
2022/04/21 11:43:58;;;;;;;3.03;2.50;;;21.90;42.90;;;;;;5043534;28;20063;-73
2022/04/21 11:46:24;;;;;;;2.42;2.17;;;21.90;42.80;;;;;;5012430;28;20552;-74
2022/04/21 11:49:00;;;;;;;2.72;2.17;;;22.00;42.70;;;;;;5020952;28;20033;-73
2022/04/21 11:51:26;;;;;;;5.03;2.42;;;22.10;42.00;;;;;;5025965;28;20114;-73
2022/04/21 11:53:52;;;;;;;3.80;2.40;;;22.10;42.20;;;;;;5032266;28;20501;-73
2022/04/21 11:56:18;;;;;;;3.92;2.58;;;22.10;42.10;;;;;;5042476;28;20103;-73
2022/04/21 11:58:44;;;;;;;2.83;2.08;;;22.10;42.00;;;;;;5042840;28;20064;-72
2022/04/21 12:06:52;;;;;;;3.72;2.60;;;21.70;42.10;;;;;;5022304;28;20048;-72
2022/04/21 12:09:19;;;;;;;4.07;2.00;;;21.80;42.30;;;;;;5012862;28;20691;-73
2022/04/21 12:11:50;;;;;;;2.30;1.88;;;22.00;42.20;;;;;;5035815;28;20036;-73
2022/04/21 12:14:19;;;;;;;1.80;1.70;;;22.10;41.90;;;;;;5017072;28;20528;-73
2022/04/21 12:16:54;;;;;;;2.55;1.75;;;22.10;41.90;;;;;;5038584;28;20220;-74
2022/04/21 12:19:32;;;;;;;3.75;1.90;;;22.20;41.70;;;;;;5059143;28;20144;-73
2022/04/21 12:22:01;;;;;;;3.15;1.85;;;22.30;41.00;;;;;;5058833;28;20033;-73
2022/04/21 12:24:31;;;;;;;2.40;2.20;;;22.40;41.20;;;;;;5052848;28;20115;-74
2022/04/21 12:26:57;;;;;;;3.70;1.67;;;22.40;40.90;;;;;;5032509;28;20033;-74
2022/04/21 12:29:22;;;;;;;3.40;1.85;;;22.30;40.80;;;;;;5028430;28;20055;-75
2022/04/21 12:31:56;;;;;;;2.95;1.73;;;22.30;40.80;;;;;;5006619;28;20201;-73
2022/04/21 12:34:29;;;;;;;1.70;1.60;;;22.30;40.60;;;;;;5011657;28;20033;-73
2022/04/21 12:36:58;;;;;;;2.33;1.27;;;22.50;40.50;;;;;;5013229;28;20036;-73
2022/04/21 12:39:24;;;;;;;1.67;1.40;;;22.60;40.20;;;;;;5029457;28;20029;-73
2022/04/21 12:41:51;;;;;;;2.88;1.40;;;22.60;40.10;;;;;;5008768;28;20071;-74
2022/04/21 12:44:18;;;;;;;3.83;2.50;;;22.60;40.80;;;;;;5027969;28;20505;-75
2022/04/21 12:46:57;;;;;;;2.15;1.95;;;22.80;40.10;;;;;;5018146;28;20054;-74
2022/04/21 12:49:24;;;;;;;2.40;2.13;;;22.80;39.90;;;;;;5030736;28;20033;-74
2022/04/21 12:51:49;;;;;;;2.30;1.58;;;23.00;39.80;;;;;;5060642;28;20071;-75
2022/04/21 12:54:27;;;;;;;3.20;1.80;;;23.00;39.60;;;;;;5031483;28;20942;-75
2022/04/21 12:56:53;;;;;;;3.10;2.05;;;22.90;38.90;;;;;;4996398;28;20033;-74
2022/04/21 12:59:19;;;;;;;3.28;1.35;;;22.80;39.30;;;;;;4990248;28;20040;-74
2022/04/21 13:01:44;;;;;;;1.83;1.60;;;22.70;39.30;;;;;;5028637;28;20037;-75
2022/04/21 13:04:10;;;;;;;1.67;1.50;;;22.60;39.30;;;;;;5018748;28;20151;-75
2022/04/21 13:06:36;;;;;;;1.50;1.40;;;22.80;39.40;;;;;;5041728;28;20029;-76
2022/04/21 13:09:01;;;;;;;2.22;1.38;;;23.00;39.30;;;;;;5042884;28;20049;-75
2022/04/21 13:11:27;;;;;;;2.10;1.20;;;23.30;39.10;;;;;;5042630;28;20037;-75
2022/04/21 13:13:53;;;;;;;4.07;1.50;;;23.40;38.80;;;;;;5056452;28;20083;-75
2022/04/21 13:16:18;;;;;;;2.75;1.38;;;23.50;38.60;;;;;;5024866;28;20028;-76
2022/04/21 13:18:45;;;;;;;2.03;1.33;;;23.60;38.50;;;;;;5030920;28;20021;-74
2022/04/21 13:23:55;;;;;;;1.10;1.00;;;24.00;38.30;;;;;;5028050;28;20153;-76
2022/04/21 13:26:24;;;;;;;1.75;1.05;;;24.10;38.20;;;;;;5043683;28;20022;-74
2022/04/21 13:28:49;;;;;;;1.27;1.13;;;24.20;37.80;;;;;;5011755;28;20036;-74
2022/04/21 13:33:59;;;;;;;3.13;1.70;;;24.00;37.40;;;;;;5016711;28;20040;-73
2022/04/21 13:36:25;;;;;;;3.40;2.80;;;23.80;37.40;;;;;;5026761;28;20028;-76
2022/04/21 13:38:50;;;;;;;2.70;2.20;;;23.70;37.40;;;;;;5014844;28;20032;-74
2022/04/21 13:41:17;;;;;;;2.40;1.70;;;23.80;37.40;;;;;;4993972;28;20032;-74
2022/04/21 13:43:43;;;;;;;1.25;1.10;;;23.90;37.60;;;;;;5044912;28;20578;-74
2022/04/21 13:46:09;;;;;;;30.67;3.17;;;24.00;37.50;;;;;;5050442;28;20029;-76
2022/04/21 13:48:34;;;;;;;10.15;1.45;;;24.30;37.70;;;;;;5058666;28;20037;-76
2022/04/21 13:51:00;;;;;;;9.30;1.60;;;24.60;37.70;;;;;;5025919;28;20728;-71
2022/04/21 13:53:25;;;;;;;5.50;1.52;;;24.80;37.30;;;;;;5024368;28;20142;-72
2022/04/21 13:55:51;;;;;;;7.95;1.30;;;25.10;37.10;;;;;;5052439;28;20432;-75
2022/04/21 13:58:16;;;;;;;10.75;1.42;;;25.20;36.60;;;;;;5023483;28;20501;-75